Time;durP1;ratioP1;P1;durP2;ratioP2;P2;SDS_P1;SDS_P2;PMS_P1;PMS_P2;Temp;Humidity;BMP_temperature;BMP_pressure;BME280_temperature;BME280_humidity;BME280_pressure;Samples;Min_cycle;Max_cycle;Signal;HPM_P1;HPM_P2
2022/09/20 00:00:46;;;;;;;5.93;1.65;;;;;;;14.05;100.00;101867.28;4956424;28;20441;-89
2022/09/20 00:03:14;;;;;;;3.90;1.40;;;;;;;14.30;100.00;101879.63;4953092;28;20127;-89
2022/09/20 00:05:43;;;;;;;4.95;1.58;;;;;;;14.16;100.00;101852.91;4953353;29;20051;-89
2022/09/20 00:08:15;;;;;;;5.82;1.80;;;;;;;13.96;100.00;101845.69;4955714;28;20390;-89
2022/09/20 00:10:42;;;;;;;4.30;1.60;;;;;;;13.90;100.00;101817.81;4956999;28;20559;-89
2022/09/20 00:13:11;;;;;;;8.52;1.90;;;;;;;14.30;100.00;101876.97;4944675;28;20046;-89
2022/09/20 00:15:43;;;;;;;5.57;1.73;;;;;;;14.13;100.00;101863.53;4957061;28;20055;-89
2022/09/20 00:18:10;;;;;;;4.85;1.60;;;;;;;14.28;100.00;101875.34;4956427;28;20054;-90
2022/09/20 00:20:47;;;;;;;6.20;1.70;;;;;;;14.01;100.00;101844.63;4957024;28;20058;-90
2022/09/20 00:23:15;;;;;;;3.15;1.30;;;;;;;14.26;100.00;101879.78;4957200;28;20413;-90
2022/09/20 00:25:42;;;;;;;3.58;1.38;;;;;;;14.21;100.00;101877.31;4957499;28;20054;-90
2022/09/20 00:28:09;;;;;;;5.68;1.35;;;;;;;14.10;100.00;101856.63;4955988;28;20042;-89
2022/09/20 00:30:37;;;;;;;4.03;1.40;;;;;;;14.25;100.00;101865.75;4956155;28;20042;-89
2022/09/20 00:33:04;;;;;;;3.47;1.30;;;;;;;13.94;100.00;101818.56;4956951;28;20054;-89
2022/09/20 00:35:31;;;;;;;4.22;1.45;;;;;;;13.94;100.00;101823.84;4954924;28;20054;-89
2022/09/20 00:37:57;;;;;;;4.22;1.60;;;;;;;13.81;100.00;101803.19;4949615;28;20050;-89
2022/09/20 00:40:27;;;;;;;3.83;1.35;;;;;;;14.12;100.00;101848.66;4956507;28;20496;-90
2022/09/20 00:42:54;;;;;;;3.95;1.42;;;;;;;14.16;100.00;101850.25;4973970;28;20074;-89
2022/09/20 00:45:27;;;;;;;4.00;1.23;;;;;;;14.34;100.00;101875.09;4956620;28;20114;-90
2022/09/20 00:48:29;;;;;;;3.67;1.45;;;;;;;14.27;100.00;101855.16;4947415;28;20129;-90
2022/09/20 00:51:05;;;;;;;4.28;1.60;;;;;;;14.20;100.00;101865.03;4924104;28;20129;-90
2022/09/20 00:53:37;;;;;;;2.95;1.30;;;;;;;14.26;100.00;101877.16;4957230;28;20050;-90
2022/09/20 00:56:07;;;;;;;3.45;1.33;;;;;;;14.15;100.00;101846.78;4956817;28;20050;-89
2022/09/20 00:58:39;;;;;;;3.80;1.30;;;;;;;14.29;100.00;101864.75;4963051;28;20047;-90
2022/09/20 01:01:06;;;;;;;3.38;1.42;;;;;;;13.96;100.00;101814.94;4947138;28;20054;-90
2022/09/20 01:03:37;;;;;;;4.10;1.20;;;;;;;13.99;100.00;101812.22;4953674;28;20054;-90
2022/09/20 01:06:10;;;;;;;4.40;1.67;;;;;;;14.17;100.00;101863.38;4957048;28;20054;-90
2022/09/20 01:08:40;;;;;;;3.28;1.33;;;;;;;13.98;100.00;101843.88;4955360;28;20050;-90
2022/09/20 01:11:07;;;;;;;11.88;1.85;;;;;;;14.00;100.00;101829.72;4946095;28;20061;-90
2022/09/20 01:13:33;;;;;;;4.00;1.55;;;;;;;13.86;100.00;101800.38;4954011;28;20453;-90
2022/09/20 01:16:03;;;;;;;3.30;1.10;;;;;;;14.33;100.00;101868.13;4956425;28;20530;-90
2022/09/20 01:18:32;;;;;;;2.88;1.20;;;;;;;14.16;100.00;101866.06;4952251;28;20047;-90
2022/09/20 01:21:00;;;;;;;4.22;1.33;;;;;;;13.76;100.00;101855.13;4945239;29;20107;-90
2022/09/20 01:23:54;;;;;;;4.18;1.60;;;;;;;13.77;100.00;101867.34;4955718;28;20038;-89
2022/09/20 01:26:44;;;;;;;4.22;1.52;;;;;;;13.62;100.00;101870.50;4938246;28;20474;-90
2022/09/20 01:29:16;;;;;;;3.60;1.50;;;;;;;13.57;100.00;101868.00;4949494;28;20054;-89
2022/09/20 01:31:53;;;;;;;4.95;1.77;;;;;;;13.30;100.00;101844.28;4949662;28;20102;-89
2022/09/20 01:34:43;;;;;;;5.35;1.60;;;;;;;13.51;100.00;101849.81;4955503;28;20499;-89
2022/09/20 01:37:22;;;;;;;4.25;1.67;;;;;;;13.20;100.00;101794.66;4951427;29;20059;-89
2022/09/20 01:40:09;;;;;;;4.10;1.52;;;;;;;13.76;100.00;101884.06;4949405;28;20105;-90
2022/09/20 01:42:39;;;;;;;3.85;1.33;;;;;;;13.46;100.00;101814.88;4949352;28;20046;-89
2022/09/20 01:45:27;;;;;;;5.40;2.00;;;;;;;13.44;100.00;101838.63;4953440;28;20103;-89
2022/09/20 01:48:02;;;;;;;4.53;1.60;;;;;;;13.73;100.00;101878.06;4940769;28;20051;-89
2022/09/20 01:50:51;;;;;;;8.50;2.15;;;;;;;13.67;100.00;101879.97;4952774;28;20105;-90
2022/09/20 01:53:39;;;;;;;5.40;1.80;;;;;;;13.78;100.00;101877.00;4956730;28;20055;-89
2022/09/20 01:56:09;;;;;;;6.78;1.95;;;;;;;13.73;100.00;101872.78;4946612;28;20163;-88
2022/09/20 01:59:00;;;;;;;4.75;1.75;;;;;;;13.76;100.00;101876.19;4948742;28;20054;-89
2022/09/20 02:01:50;;;;;;;6.05;2.00;;;;;;;13.79;100.00;101872.56;4956393;28;20075;-89
2022/09/20 02:04:42;;;;;;;6.03;1.90;;;;;;;13.75;100.00;101871.81;4959186;28;20084;-89
2022/09/20 02:07:27;;;;;;;4.53;1.60;;;;;;;13.83;100.00;101863.69;4976694;28;20097;-89
2022/09/20 02:10:32;;;;;;;3.78;1.52;;;;;;;13.85;100.00;101852.19;4952387;28;20051;-89
2022/09/20 02:13:07;;;;;;;4.20;1.50;;;;;;;13.83;100.00;101843.47;4917208;29;20455;-89
2022/09/20 02:15:58;;;;;;;6.50;1.65;;;;;;;13.90;100.00;101859.94;4898581;29;20060;-89
2022/09/20 02:18:25;;;;;;;4.47;1.45;;;;;;;13.91;100.00;101858.16;4937802;28;20113;-89
2022/09/20 02:21:16;;;;;;;4.05;1.42;;;;;;;13.96;100.00;101867.59;4963216;28;20047;-89
2022/09/20 02:24:03;;;;;;;3.78;1.45;;;;;;;13.92;100.00;101876.53;4948566;28;20051;-89
2022/09/20 02:26:30;;;;;;;6.57;1.65;;;;;;;13.66;100.00;101846.66;4956025;28;20097;-89
2022/09/20 02:29:34;;;;;;;5.28;1.65;;;;;;;13.97;100.00;101877.25;4950918;28;20050;-89
2022/09/20 02:32:39;;;;;;;4.10;1.45;;;;;;;13.93;100.00;101878.25;4967351;28;20413;-90
2022/09/20 02:35:15;;;;;;;7.25;1.83;;;;;;;13.57;100.00;101807.50;4946396;28;20051;-90
2022/09/20 02:38:07;;;;;;;3.35;1.50;;;;;;;13.95;100.00;101865.91;4948585;28;20117;-90
2022/09/20 02:40:55;;;;;;;6.07;1.52;;;;;;;13.93;100.00;101858.97;4948445;28;20043;-90
2022/09/20 02:43:47;;;;;;;4.97;1.60;;;;;;;13.56;100.00;101818.06;4954896;28;20050;-90
2022/09/20 02:46:21;;;;;;;5.15;1.73;;;;;;;13.79;100.00;101870.81;4976144;28;20058;-89
2022/09/20 02:49:07;;;;;;;5.22;1.70;;;;;;;13.82;100.00;101856.69;4954414;28;20541;-89
2022/09/20 02:51:42;;;;;;;4.25;1.67;;;;;;;13.87;100.00;101867.94;4945800;28;20473;-90
2022/09/20 02:54:30;;;;;;;3.53;1.40;;;;;;;13.85;100.00;101872.38;4958816;28;20055;-91
2022/09/20 02:57:19;;;;;;;5.07;1.80;;;;;;;13.77;100.00;101869.13;4945784;28;20615;-90
2022/09/20 02:59:52;;;;;;;5.65;1.65;;;;;;;13.73;100.00;101839.44;4954209;28;20117;-89
2022/09/20 03:02:29;;;;;;;4.47;1.67;;;;;;;13.83;100.00;101846.09;4959368;28;20043;-89
2022/09/20 03:05:24;;;;;;;4.15;1.70;;;;;;;13.97;100.00;101857.94;4953617;28;20061;-89
2022/09/20 03:08:06;;;;;;;4.80;1.77;;;;;;;13.73;100.00;101839.44;4945117;28;20127;-89
2022/09/20 03:10:52;;;;;;;5.07;1.75;;;;;;;13.84;100.00;101839.06;4955467;28;20102;-90
2022/09/20 03:13:48;;;;;;;4.28;1.60;;;;;;;13.92;100.00;101842.31;4952928;28;20047;-89
2022/09/20 03:16:21;;;;;;;4.97;1.52;;;;;;;13.92;100.00;101841.47;4958539;28;20109;-89
2022/09/20 03:18:55;;;;;;;;;;;;;;;14.02;100.00;101842.84;4954974;28;20055;-86
2022/09/20 03:21:37;;;;;;;3.65;1.20;;;;;;;13.85;100.00;101838.16;4956548;28;19926;-91
2022/09/20 03:24:19;;;;;;;5.50;1.52;;;;;;;13.79;100.00;101841.88;4959175;28;20042;-90
2022/09/20 03:26:49;;;;;;;3.72;1.40;;;;;;;13.92;100.00;101837.03;4963218;28;20117;-91
2022/09/20 03:29:36;;;;;;;3.70;1.40;;;;;;;13.94;100.00;101844.91;4955352;28;20051;-90
2022/09/20 03:32:30;;;;;;;3.95;1.63;;;;;;;13.96;100.00;101840.44;4947534;28;20051;-90
2022/09/20 03:34:57;;;;;;;4.70;1.50;;;;;;;13.97;100.00;101837.75;4958153;28;20054;-90
2022/09/20 03:37:42;;;;;;;3.17;1.17;;;;;;;13.97;100.00;101835.13;4957965;28;20412;-90
2022/09/20 03:40:36;;;;;;;4.75;1.70;;;;;;;13.93;100.00;101828.22;4958178;28;20058;-90
2022/09/20 03:43:23;;;;;;;5.38;1.42;;;;;;;13.82;100.00;101820.69;4959645;28;20540;-90
2022/09/20 03:45:53;;;;;;;4.22;1.60;;;;;;;13.85;100.00;101822.38;4948542;28;20058;-90
2022/09/20 03:48:51;;;;;;;4.43;1.50;;;;;;;13.78;100.00;101815.59;4957546;28;20129;-90
2022/09/20 03:51:22;;;;;;;4.25;1.40;;;;;;;13.72;100.00;101827.16;4958373;28;20050;-90
2022/09/20 03:53:58;;;;;;;3.47;1.40;;;;;;;13.51;100.00;101815.59;4954713;29;20134;-90
2022/09/20 03:57:02;;;;;;;5.05;1.50;;;;;;;13.68;100.00;101810.63;4958032;28;20058;-90
2022/09/20 03:59:44;;;;;;;4.57;1.70;;;;;;;13.75;100.00;101819.19;4955148;28;20050;-89
2022/09/20 04:02:33;;;;;;;4.32;1.52;;;;;;;13.44;100.00;101782.53;4957970;28;20057;-87
2022/09/20 04:05:17;;;;;;;3.75;1.45;;;;;;;13.47;100.00;101779.75;4957844;28;20055;-88
2022/09/20 04:08:02;;;;;;;;;;;;;;;13.82;100.00;101815.41;4955369;28;20047;-89
2022/09/20 04:10:40;;;;;;;5.28;1.75;;;;;;;13.71;100.00;101812.31;4967940;28;19977;-87
2022/09/20 04:13:36;;;;;;;4.22;1.50;;;;;;;13.70;100.00;101821.09;4957529;28;20481;-89
2022/09/20 04:16:14;;;;;;;4.13;1.48;;;;;;;13.66;100.00;101819.50;4956819;28;20050;-89
2022/09/20 04:18:44;;;;;;;4.82;1.38;;;;;;;13.70;100.00;101812.34;4958215;28;20059;-88
2022/09/20 04:21:41;;;;;;;4.63;1.60;;;;;;;13.69;100.00;101814.13;4971008;28;20058;-86
2022/09/20 04:24:21;;;;;;;4.88;1.92;;;;;;;13.68;100.00;101809.75;4974044;28;20050;-87
2022/09/20 04:26:59;;;;;;;5.07;1.50;;;;;;;13.63;100.00;101806.44;4957364;28;20051;-87
2022/09/20 04:29:31;;;;;;;3.88;1.42;;;;;;;13.62;100.00;101816.09;4955436;28;20150;-90
2022/09/20 04:32:35;;;;;;;5.80;1.80;;;;;;;13.54;100.00;101814.63;4975025;28;20402;-90
2022/09/20 04:38:19;;;;;;;6.88;1.83;;;;;;;13.30;100.00;101783.78;4972143;28;20497;-90
2022/09/20 04:41:11;;;;;;;7.80;1.60;;;;;;;13.67;100.00;101811.53;4954116;28;20081;-89
2022/09/20 04:44:05;;;;;;;4.15;1.30;;;;;;;13.63;100.00;101809.94;4942945;28;20093;-88
2022/09/20 04:46:44;;;;;;;;;;;;;;;13.78;100.00;101816.44;4961598;28;20059;-87
2022/09/20 04:50:09;;;;;;;4.40;1.40;;;;;;;13.69;100.00;101811.50;4972283;28;20367;-87
2022/09/20 04:53:01;;;;;;;4.20;1.60;;;;;;;13.72;100.00;101823.69;4961772;28;20043;-87
2022/09/20 04:55:43;;;;;;;4.00;1.23;;;;;;;13.67;100.00;101810.69;4939043;28;20051;-88
2022/09/20 04:58:17;;;;;;;6.78;1.52;;;;;;;13.72;100.00;101815.78;4941021;28;20055;-88
2022/09/20 05:01:15;;;;;;;5.07;1.50;;;;;;;13.53;100.00;101771.69;4951644;29;20106;-88
2022/09/20 05:04:07;;;;;;;4.75;1.63;;;;;;;13.79;100.00;101815.53;4952043;28;20043;-87
2022/09/20 05:06:37;;;;;;;4.47;1.70;;;;;;;13.79;100.00;101812.91;4955239;28;20051;-87
2022/09/20 05:09:32;;;;;;;5.25;1.48;;;;;;;13.85;100.00;101814.47;4955378;28;20058;-90
2022/09/20 05:12:36;;;;;;;3.78;1.42;;;;;;;13.81;100.00;101816.34;4948280;28;20055;-89
2022/09/20 05:15:22;;;;;;;;;;;;;;;13.90;100.00;101817.81;4967748;28;20047;-90
2022/09/20 05:18:25;;;;;;;3.63;1.50;;;;;;;13.77;100.00;101804.19;4953790;28;19922;-90
2022/09/20 05:21:38;;;;;;;4.20;1.70;;;;;;;13.64;100.00;101787.97;4939730;28;20101;-86
2022/09/20 05:24:23;;;;;;;5.43;1.42;;;;;;;13.83;100.00;101813.66;4937599;28;20066;-89
2022/09/20 05:26:53;;;;;;;6.00;1.88;;;;;;;13.76;100.00;101813.00;4956009;28;20062;-89
2022/09/20 05:29:24;;;;;;;3.70;1.55;;;;;;;13.72;100.00;101806.09;4954501;28;20468;-87
2022/09/20 05:32:29;;;;;;;4.40;1.55;;;;;;;13.78;100.00;101818.22;4950914;28;20465;-90
2022/09/20 05:35:03;;;;;;;5.80;2.00;;;;;;;13.84;100.00;101815.38;4952179;28;20490;-90
2022/09/20 05:37:45;;;;;;;4.65;1.70;;;;;;;13.89;100.00;101817.88;4956351;28;20993;-90
2022/09/20 05:40:20;;;;;;;5.90;1.90;;;;;;;13.92;100.00;101818.63;4958631;28;20445;-89
2022/09/20 05:43:10;;;;;;;4.07;1.60;;;;;;;13.96;100.00;101816.75;4959179;28;20051;-90
2022/09/20 05:46:09;;;;;;;7.03;2.00;;;;;;;13.50;100.00;101742.84;4958825;28;20066;-89
2022/09/20 05:48:45;;;;;;;5.30;1.85;;;;;;;13.93;100.00;101817.69;4955681;28;20163;-90
2022/09/20 05:52:00;;;;;;;4.88;1.50;;;;;;;14.03;100.00;101820.88;4954034;28;20164;-89
2022/09/20 05:54:45;;;;;;;4.65;1.60;;;;;;;14.00;100.00;101816.56;4943966;28;20098;-90
2022/09/20 05:57:55;;;;;;;4.70;1.52;;;;;;;13.96;100.00;101812.31;4957457;28;20049;-89
2022/09/20 06:00:27;;;;;;;5.25;1.58;;;;;;;13.94;100.00;101813.31;4969488;28;20051;-88
2022/09/20 06:03:04;;;;;;;5.38;1.77;;;;;;;13.77;100.00;101782.28;4963091;28;20460;-91
2022/09/20 06:06:13;;;;;;;4.25;1.52;;;;;;;13.87;100.00;101820.53;4956428;28;20047;-89
2022/09/20 06:08:49;;;;;;;5.45;1.60;;;;;;;13.70;100.00;101807.94;4937074;28;20051;-89
2022/09/20 06:11:47;;;;;;;5.22;1.73;;;;;;;13.66;100.00;101801.91;4966266;28;20058;-89
2022/09/20 06:14:49;;;;;;;5.07;1.85;;;;;;;13.76;100.00;101820.06;4955384;28;20039;-89
2022/09/20 06:17:52;;;;;;;3.85;1.65;;;;;;;13.89;100.00;101810.81;4954288;28;20043;-89
2022/09/20 06:20:28;;;;;;;5.82;1.80;;;;;;;13.84;100.00;101810.97;4953281;28;20047;-89
2022/09/20 06:23:00;;;;;;;6.32;1.98;;;;;;;13.84;100.00;101815.38;4967861;28;20047;-88
2022/09/20 06:25:36;;;;;;;4.75;1.73;;;;;;;13.91;100.00;101810.75;4950323;28;20105;-90
2022/09/20 06:28:13;;;;;;;6.80;1.80;;;;;;;13.88;100.00;101809.09;4946934;28;20052;-90
2022/09/20 06:30:46;;;;;;;3.90;1.63;;;;;;;13.77;100.00;101796.28;4950189;28;20549;-90
2022/09/20 06:33:15;;;;;;;4.72;1.55;;;;;;;13.81;100.00;101802.31;4951321;28;20134;-90
2022/09/20 06:35:45;;;;;;;4.72;1.60;;;;;;;13.89;100.00;101810.81;4958267;28;20474;-90
2022/09/20 06:41:29;;;;;;;4.07;1.63;;;;;;;13.73;100.00;101776.25;4975264;28;20058;-90
2022/09/20 06:43:58;;;;;;;6.38;1.95;;;;;;;13.92;100.00;101820.41;4951648;28;20051;-89
2022/09/20 06:46:30;;;;;;;6.10;1.88;;;;;;;13.93;100.00;101806.31;4958316;28;20075;-90
2022/09/20 06:48:57;;;;;;;10.23;2.47;;;;;;;13.50;100.00;101765.66;4954517;28;20098;-91
2022/09/20 06:51:27;;;;;;;6.22;1.77;;;;;;;13.53;100.00;101781.31;4960457;28;20055;-89
2022/09/20 06:53:56;;;;;;;5.10;1.75;;;;;;;13.88;100.00;101819.63;4953480;28;20478;-88
2022/09/20 06:56:26;;;;;;;4.65;1.77;;;;;;;13.74;100.00;101785.88;4970581;28;20508;-90
2022/09/20 06:58:53;;;;;;;5.53;1.80;;;;;;;13.83;100.00;101805.78;4957104;28;20051;-88
2022/09/20 07:01:21;;;;;;;5.25;2.00;;;;;;;13.37;100.00;101770.44;4978944;28;20054;-88
2022/09/20 07:03:56;;;;;;;5.85;2.20;;;;;;;13.51;100.00;101788.41;4955423;28;20051;-88
2022/09/20 07:06:23;;;;;;;6.15;1.92;;;;;;;13.61;100.00;101797.72;4959975;28;20058;-89
2022/09/20 07:08:49;;;;;;;5.95;2.08;;;;;;;13.69;100.00;101811.50;4953237;28;20053;-89
2022/09/20 07:11:16;;;;;;;5.57;1.90;;;;;;;13.85;100.00;101831.13;4959591;28;20105;-89
2022/09/20 07:13:44;;;;;;;7.35;2.17;;;;;;;13.72;100.00;101815.78;4959948;28;20059;-88
2022/09/20 07:16:15;;;;;;;6.28;2.22;;;;;;;13.62;100.00;101786.31;4976720;28;20055;-88
2022/09/20 07:18:43;;;;;;;5.75;2.00;;;;;;;13.74;100.00;101814.84;4959580;28;20062;-86
2022/09/20 07:21:15;;;;;;;5.40;2.10;;;;;;;13.52;100.00;101805.94;4972712;28;20053;-89
2022/09/20 07:23:44;;;;;;;7.72;2.63;;;;;;;13.52;100.00;101827.84;4976353;28;20047;-89
2022/09/20 07:26:24;;;;;;;5.63;2.08;;;;;;;13.53;100.00;101791.84;4948318;28;20055;-89
2022/09/20 07:28:52;;;;;;;5.78;2.10;;;;;;;13.71;100.00;101838.63;4950454;28;20066;-88
2022/09/20 07:31:21;;;;;;;6.55;2.00;;;;;;;13.77;100.00;101835.78;4976332;28;20059;-88
2022/09/20 07:33:48;;;;;;;11.63;2.40;;;;;;;13.58;100.00;101789.94;4959366;28;20050;-90
2022/09/20 07:36:15;;;;;;;6.60;2.35;;;;;;;13.76;100.00;101813.00;4951958;29;20050;-89
2022/09/20 07:38:49;;;;;;;10.20;2.53;;;;;;;13.89;100.00;101834.50;4961021;28;20050;-89
2022/09/20 07:41:21;;;;;;;9.93;3.65;;;;;;;13.68;100.00;101821.16;4976519;28;20058;-89
2022/09/20 07:43:49;;;;;;;8.10;2.53;;;;;;;13.44;100.00;101767.59;4961449;28;20042;-89
2022/09/20 07:46:17;;;;;;;7.72;2.38;;;;;;;13.75;100.00;101782.31;4964645;28;20051;-89
2022/09/20 07:48:43;;;;;;;6.97;2.60;;;;;;;14.07;100.00;101826.91;4953746;28;20134;-90
2022/09/20 07:51:12;;;;;;;5.50;2.30;;;;;;;14.34;100.00;101839.09;4964028;28;20051;-90
2022/09/20 07:53:39;;;;;;;6.32;2.28;;;;;;;14.52;100.00;101826.16;4963791;28;20728;-90
2022/09/20 07:56:10;;;;;;;6.80;2.38;;;;;;;14.45;100.00;101783.38;4961106;28;20497;-90
2022/09/20 07:58:37;;;;;;;6.32;2.22;;;;;;;14.59;100.00;101812.75;4962974;28;20067;-91
2022/09/20 08:01:07;;;;;;;4.32;1.73;;;;;;;14.92;100.00;101815.00;4964781;28;20042;-91
2022/09/20 08:03:35;;;;;;;6.78;2.00;;;;;;;14.89;100.00;101796.69;4965736;28;20476;-90
2022/09/20 08:06:06;;;;;;;7.25;2.03;;;;;;;15.17;100.00;101820.19;4965245;28;20046;-90
2022/09/20 08:08:35;;;;;;;5.25;1.80;;;;;;;15.24;100.00;101804.09;4963300;28;20053;-90
2022/09/20 08:11:05;;;;;;;4.05;1.60;;;;;;;15.41;100.00;101814.84;4958729;28;20051;-90
2022/09/20 08:13:36;;;;;;;5.28;1.90;;;;;;;15.38;100.00;101807.88;4962136;28;20043;-88
2022/09/20 08:16:23;;;;;;;5.55;1.60;;;;;;;15.70;100.00;101816.25;4965683;28;20117;-91
2022/09/20 08:18:55;;;;;;;7.43;2.10;;;;;;;15.55;100.00;101783.44;4964099;28;20074;-90
2022/09/20 08:21:24;;;;;;;5.22;1.80;;;;;;;15.75;100.00;101809.03;4979104;28;20058;-91
2022/09/20 08:23:52;;;;;;;6.63;2.30;;;;;;;15.38;100.00;101786.78;4977250;28;20051;-91
2022/09/20 08:26:23;;;;;;;7.65;1.90;;;;;;;15.79;100.00;101840.59;4964109;28;20061;-90
2022/09/20 08:28:55;;;;;;;5.80;1.92;;;;;;;15.86;100.00;101842.06;4963163;28;20061;-89
2022/09/20 08:31:25;;;;;;;6.60;2.60;;;;;;;15.27;100.00;101798.72;4980724;28;20471;-92
2022/09/20 08:33:53;;;;;;;10.38;2.72;;;;;;;15.01;100.00;101782.13;4966306;28;20138;-91
2022/09/20 08:36:23;;;;;;;7.18;1.85;;;;;;;15.11;100.00;101775.56;4966346;28;20047;-90
2022/09/20 08:38:51;;;;;;;6.88;2.60;;;;;;;14.74;100.00;101828.88;4961479;28;20056;-91
2022/09/20 08:41:49;;;;;;;6.57;2.63;;;;;;;14.95;100.00;101857.06;4969139;28;20058;-91
2022/09/20 08:44:32;;;;;;;5.38;1.90;;;;;;;15.31;100.00;101853.91;4964641;28;20061;-91
2022/09/20 08:47:22;;;;;;;6.30;1.95;;;;;;;15.38;100.00;101855.38;4964366;28;20078;-90
2022/09/20 08:49:53;;;;;;;4.75;1.70;;;;;;;15.15;100.00;101818.50;4964019;28;20051;-90
2022/09/20 08:52:32;;;;;;;5.47;1.92;;;;;;;15.56;100.00;101829.19;4950472;28;20057;-91
2022/09/20 08:55:20;;;;;;;7.00;2.38;;;;;;;15.93;100.00;101847.00;4967696;28;20137;-92
2022/09/20 08:57:55;;;;;;;5.97;2.00;;;;;;;15.50;100.00;101790.69;4965381;28;20054;-91
2022/09/20 09:00:32;;;;;;;6.78;2.30;;;;;;;15.70;100.00;101815.41;4966071;28;20469;-91
2022/09/20 09:03:05;;;;;;;5.85;2.08;;;;;;;16.04;100.00;101835.13;4965932;28;20055;-91
2022/09/20 09:05:51;;;;;;;5.15;1.88;;;;;;;16.42;100.00;101851.97;4962279;28;20047;-91
2022/09/20 09:08:25;;;;;;;6.22;2.22;;;;;;;16.36;100.00;101851.38;4965582;28;20050;-90
2022/09/20 09:10:54;;;;;;;;;;;;;;;16.59;100.00;101851.22;4961008;29;20058;-90
2022/09/20 09:13:31;;;;;;;6.80;2.20;;;;;;;16.60;100.00;101844.13;4962136;28;19972;-90
2022/09/20 09:16:01;;;;;;;6.65;1.98;;;;;;;16.67;100.00;101858.78;4952388;28;20146;-91
2022/09/20 09:18:33;;;;;;;7.95;2.10;;;;;;;16.38;100.00;101839.81;4963472;28;20051;-90
2022/09/20 09:21:03;;;;;;;5.10;1.77;;;;;;;16.20;100.00;101798.34;4963882;28;20050;-91
2022/09/20 09:23:40;;;;;;;4.38;1.63;;;;;;;16.69;100.00;101849.84;4987494;28;20464;-92
2022/09/20 09:26:20;;;;;;;5.88;1.85;;;;;;;16.37;100.00;101808.16;4962012;28;20047;-91
2022/09/20 09:29:28;;;;;;;5.60;2.05;;;;;;;16.38;100.00;101823.97;4968650;28;20051;-92
2022/09/20 09:32:19;;;;;;;6.97;1.75;;;;;;;16.17;100.00;101809.91;4964166;28;20058;-92
2022/09/20 09:34:47;;;;;;;5.10;1.60;;;;;;;16.44;100.00;101815.75;4968572;28;20051;-92
2022/09/20 09:37:27;;;;;;;5.78;1.75;;;;;;;16.44;100.00;101828.09;4966653;28;20051;-90
2022/09/20 09:40:15;;;;;;;5.10;1.85;;;;;;;16.39;100.00;101830.94;4977124;28;20062;-93
2022/09/20 09:42:57;;;;;;;5.47;2.13;;;;;;;16.39;100.00;101854.72;4975055;28;20050;-90
2022/09/20 09:45:40;;;;;;;3.92;1.65;;;;;;;16.28;100.00;101831.41;4980850;28;20057;-92
2022/09/20 09:48:16;;;;;;;6.30;2.10;;;;;;;16.34;100.00;101856.72;4959537;28;20051;-92
2022/09/20 09:50:46;;;;;;;7.85;2.88;;;;;;;16.05;100.00;101832.44;4943496;29;20055;-91
2022/09/20 09:53:35;;;;;;;6.90;2.15;;;;;;;16.13;100.00;101813.63;4961963;28;20478;-91
2022/09/20 09:56:14;;;;;;;5.40;1.92;;;;;;;16.30;100.00;101844.56;4953931;28;20409;-91
2022/09/20 09:59:09;;;;;;;6.65;2.08;;;;;;;16.01;100.00;101843.22;4951361;28;20057;-92
2022/09/20 10:01:55;;;;;;;6.90;2.88;;;;;;;15.92;100.00;101818.91;4946412;28;20055;-91
2022/09/20 10:04:40;;;;;;;9.35;4.03;;;;;;;16.25;100.00;101847.41;4954804;28;20051;-91
2022/09/20 10:07:26;;;;;;;14.98;7.47;;;;;;;16.11;100.00;101826.91;4956853;28;20055;-90
2022/09/20 10:10:07;;;;;;;10.05;4.55;;;;;;;16.26;100.00;101840.34;4957619;28;20058;-92
2022/09/20 10:12:45;;;;;;;10.05;4.28;;;;;;;15.87;100.00;101789.19;4955613;28;20399;-92
2022/09/20 10:15:26;;;;;;;10.25;4.18;;;;;;;16.38;100.00;101849.50;4959933;28;20051;-91
2022/09/20 10:18:23;;;;;;;7.88;3.20;;;;;;;16.21;100.00;101848.47;4948661;28;20058;-92
2022/09/20 10:20:54;;;;;;;8.50;2.83;;;;;;;16.73;100.00;101847.91;4976224;28;20508;-92
2022/09/20 10:24:04;;;;;;;7.28;2.45;;;;;;;16.41;100.00;101807.09;4943134;28;20109;-93
2022/09/20 10:26:54;;;;;;;6.85;2.17;;;;;;;16.50;100.00;101820.75;4975626;28;20454;-93
2022/09/20 10:29:30;;;;;;;7.00;2.45;;;;;;;16.73;100.00;101852.34;4961512;28;20496;-93
2022/09/20 10:32:09;;;;;;;6.55;2.13;;;;;;;16.89;100.00;101851.63;4963593;28;20058;-93
2022/09/20 10:34:48;;;;;;;5.63;1.92;;;;;;;16.73;100.00;101817.97;4964988;28;20478;-91
2022/09/20 10:37:58;;;;;;;6.93;2.47;;;;;;;16.65;100.00;101843.00;4953140;28;20043;-92
2022/09/20 10:43:51;;;;;;;4.88;1.83;;;;;;;17.17;100.00;101839.72;4979214;28;20039;-93
2022/09/20 10:46:50;;;;;;;4.72;1.85;;;;;;;17.10;100.00;101795.13;4943546;29;20051;-92
2022/09/20 10:49:27;;;;;;;4.78;1.80;;;;;;;17.37;100.00;101814.97;4952137;29;20055;-92
2022/09/20 10:52:18;;;;;;;5.25;1.90;;;;;;;17.50;100.00;101819.66;4965973;28;20432;-93
2022/09/20 10:55:22;;;;;;;5.90;2.35;;;;;;;17.51;100.00;101840.75;4969949;28;20047;-92
2022/09/20 10:58:08;;;;;;;6.57;2.33;;;;;;;17.36;100.00;101810.59;4972004;28;20125;-93
2022/09/20 11:01:09;;;;;;;6.95;2.00;;;;;;;17.45;100.00;101785.44;4955102;28;20054;-90
2022/09/20 11:04:03;;;;;;;6.88;2.13;;;;;;;17.69;100.00;101782.47;4980242;28;20111;-91
2022/09/20 11:06:46;;;;;;;7.10;2.03;;;;;;;18.02;100.00;101831.16;4980318;28;20046;-93
2022/09/20 11:09:19;;;;;;;7.10;2.30;;;;;;;18.23;100.00;101838.06;4973368;28;20477;-91
2022/09/20 11:11:54;;;;;;;6.47;2.20;;;;;;;18.18;100.00;101844.47;4963367;28;20050;-93
2022/09/20 11:14:31;;;;;;;5.85;1.98;;;;;;;18.24;100.00;101831.81;4964912;28;20053;-91
2022/09/20 11:17:24;;;;;;;7.50;2.72;;;;;;;17.97;100.00;101837.59;4946678;29;20410;-93
2022/09/20 11:20:06;;;;;;;10.13;2.42;;;;;;;18.21;100.00;101823.06;4952194;28;20058;-93
2022/09/20 11:22:41;;;;;;;5.47;1.90;;;;;;;18.51;100.00;101834.81;4983825;28;20066;-92
2022/09/20 11:25:19;;;;;;;5.80;1.90;;;;;;;18.83;100.00;101832.22;4956084;28;20062;-92
2022/09/20 11:27:57;;;;;;;;;;;;;;;18.72;100.00;101833.63;4979552;28;20074;-90
2022/09/20 11:30:24;;;;;;;6.00;2.00;;;;;;;18.37;100.00;101801.06;4944632;28;20303;-88
2022/09/20 11:33:14;;;;;;;7.70;2.15;;;;;;;18.62;100.00;101832.41;4961929;28;20062;-92
2022/09/20 11:35:54;;;;;;;6.43;2.22;;;;;;;18.57;100.00;101831.81;4966099;28;20054;-92
2022/09/20 11:38:33;;;;;;;5.60;2.00;;;;;;;18.78;100.00;101811.22;4958613;28;20398;-91
2022/09/20 11:41:10;;;;;;;6.55;2.05;;;;;;;18.65;100.00;101813.69;4970126;28;20054;-90
2022/09/20 11:43:44;;;;;;;7.28;2.10;;;;;;;18.39;100.00;101809.78;4963699;28;20493;-92
2022/09/20 11:46:23;;;;;;;5.78;2.03;;;;;;;18.71;100.00;101828.41;4982431;28;20077;-92
2022/09/20 11:49:08;;;;;;;7.15;2.58;;;;;;;17.99;100.00;101762.41;4964789;28;20042;-92
2022/09/20 11:51:51;;;;;;;10.02;2.75;;;;;;;18.06;100.00;101796.53;4969552;28;20042;-93
2022/09/20 11:54:34;;;;;;;4.85;1.98;;;;;;;18.46;100.00;101818.28;4967915;28;20067;-92
2022/09/20 11:57:02;;;;;;;7.07;2.43;;;;;;;18.25;100.00;101791.13;4960033;28;20050;-93
2022/09/20 11:59:49;;;;;;;5.93;1.80;;;;;;;18.59;100.00;101776.88;4947930;28;20790;-93
2022/09/20 12:02:27;;;;;;;6.80;2.10;;;;;;;18.35;100.00;101784.38;4960142;28;20065;-93
2022/09/20 12:04:55;;;;;;;6.20;1.90;;;;;;;18.86;100.00;101816.16;4948710;28;20047;-94
2022/09/20 12:07:40;;;;;;;5.72;1.90;;;;;;;18.83;100.00;101793.28;4959873;28;20050;-94
2022/09/20 12:10:22;;;;;;;4.90;1.70;;;;;;;19.16;100.00;101802.94;4949382;28;20055;-94
2022/09/20 12:12:59;;;;;;;10.20;2.15;;;;;;;19.25;100.00;101769.72;4976378;28;20057;-94
2022/09/20 12:15:30;;;;;;;8.25;3.00;;;;;;;19.59;100.00;101799.63;4959751;28;20046;-93
2022/09/20 12:17:56;;;;;;;5.78;1.88;;;;;;;19.70;100.00;101795.34;4960197;28;20054;-94
2022/09/20 12:20:37;;;;;;;5.70;2.03;;;;;;;19.83;100.00;101802.63;4950753;29;20051;-93
2022/09/20 12:23:41;;;;;;;6.25;2.10;;;;;;;19.77;100.00;101795.88;4955127;28;20066;-94
2022/09/20 12:26:14;;;;;;;6.13;2.15;;;;;;;19.89;100.00;101800.47;4976015;28;20469;-93